createdAt,value
2022-12-15T00:00:34.010Z,58.37
2022-12-15T00:03:26.266Z,55.70
2022-12-15T00:06:12.736Z,55.37
2022-12-15T00:08:59.129Z,46.30
2022-12-15T00:11:44.714Z,51.80
2022-12-15T00:14:30.499Z,56.03
2022-12-15T00:17:16.479Z,59.20
2022-12-15T00:20:03.466Z,58.47
2022-12-15T00:22:49.351Z,60.27
2022-12-15T00:25:35.896Z,50.07
2022-12-15T00:28:22.121Z,61.47
2022-12-15T00:31:08.167Z,54.60
2022-12-15T00:33:54.267Z,51.83
2022-12-15T00:36:41.328Z,50.83
2022-12-15T00:39:10.866Z,53.30
2022-12-15T00:41:39.233Z,47.93
2022-12-15T00:44:09.053Z,50.33
2022-12-15T00:46:54.911Z,47.67
2022-12-15T00:49:41.651Z,45.37
2022-12-15T00:52:30.491Z,50.90
2022-12-15T00:55:16.429Z,45.80
2022-12-15T00:58:02.728Z,45.40
2022-12-15T01:00:49.666Z,47.60
2022-12-15T01:03:38.864Z,47.57
2022-12-15T01:06:27.215Z,46.77
2022-12-15T01:09:15.625Z,45.40
2022-12-15T01:12:03.158Z,50.23
2022-12-15T01:14:50.591Z,48.27
2022-12-15T01:17:37.124Z,45.97
2022-12-15T01:20:18.406Z,47.60
2022-12-15T01:22:48.260Z,49.63
2022-12-15T01:25:20.848Z,50.07
2022-12-15T01:27:49.252Z,44.80
2022-12-15T01:30:21.726Z,44.97
2022-12-15T01:32:50.369Z,46.20
2022-12-15T01:35:18.936Z,50.43
2022-12-15T01:37:50.283Z,48.67
2022-12-15T01:40:39.533Z,49.27
2022-12-15T01:43:14.903Z,51.23
2022-12-15T01:46:03.400Z,43.90
2022-12-15T01:48:48.212Z,44.23
2022-12-15T01:51:27.079Z,45.43
2022-12-15T01:54:02.469Z,46.67
2022-12-15T01:56:38.257Z,48.00
2022-12-15T01:59:10.470Z,48.43
2022-12-15T02:01:39.304Z,47.63
2022-12-15T02:04:12.248Z,50.80
2022-12-15T02:06:40.714Z,49.20
2022-12-15T02:09:09.952Z,47.37
2022-12-15T02:11:56.298Z,47.30
2022-12-15T02:14:44.744Z,51.27
2022-12-15T02:17:29.435Z,50.67
2022-12-15T02:20:41.766Z,48.53
2022-12-15T02:24:03.918Z,39.80
2022-12-15T02:27:42.762Z,48.27
2022-12-15T02:30:23.966Z,43.80
2022-12-15T02:33:07.953Z,44.80
2022-12-15T02:35:55.167Z,49.00
2022-12-15T02:38:32.491Z,43.80
2022-12-15T02:41:02.483Z,45.47
2022-12-15T02:43:37.131Z,49.13
2022-12-15T02:46:19.770Z,49.80
2022-12-15T02:49:01.403Z,43.13
2022-12-15T02:51:46.539Z,48.60
2022-12-15T02:54:53.553Z,46.20
2022-12-15T02:57:44.033Z,45.83
2022-12-15T03:00:13.826Z,48.40
2022-12-15T03:02:48.906Z,51.30
2022-12-15T03:05:19.484Z,50.70
2022-12-15T03:07:51.464Z,50.27
2022-12-15T03:10:21.553Z,46.17
2022-12-15T03:12:50.671Z,48.80
2022-12-15T03:15:20.030Z,55.07
2022-12-15T03:17:49.661Z,53.83
2022-12-15T03:20:17.962Z,46.90
2022-12-15T03:22:46.225Z,50.77
2022-12-15T03:25:14.917Z,50.27
2022-12-15T03:27:44.316Z,47.93
2022-12-15T03:30:14.115Z,52.10
2022-12-15T03:32:42.941Z,50.80
2022-12-15T03:35:13.515Z,47.97
2022-12-15T03:37:42.875Z,46.53
2022-12-15T03:40:13.936Z,47.03
2022-12-15T03:42:50.816Z,49.33
2022-12-15T03:45:21.246Z,51.53
2022-12-15T03:47:50.511Z,53.23
2022-12-15T03:50:24.279Z,54.73
2022-12-15T03:52:54.231Z,55.67
2022-12-15T03:55:23.544Z,51.07
2022-12-15T03:57:52.756Z,49.17
2022-12-15T04:00:24.887Z,46.57
2022-12-15T04:02:54.260Z,48.30
2022-12-15T04:05:27.717Z,50.17
2022-12-15T04:07:58.852Z,49.90
2022-12-15T04:10:34.386Z,42.70
2022-12-15T04:13:05.835Z,52.13
2022-12-15T04:15:35.683Z,43.97
2022-12-15T04:18:06.776Z,52.30
2022-12-15T04:20:35.742Z,51.03
2022-12-15T04:23:04.060Z,53.43
2022-12-15T04:25:50.056Z,50.83
2022-12-15T04:28:36.303Z,49.17
2022-12-15T04:31:27.841Z,50.17
2022-12-15T04:34:17.977Z,52.43
2022-12-15T04:37:09.928Z,54.73
2022-12-15T04:39:58.894Z,51.57
2022-12-15T04:42:45.291Z,51.00
2022-12-15T04:45:33.051Z,52.93
2022-12-15T04:48:19.493Z,51.27
2022-12-15T04:51:05.380Z,48.70
2022-12-15T04:53:52.401Z,48.67
2022-12-15T04:56:38.401Z,50.13
2022-12-15T04:59:24.261Z,51.10
2022-12-15T05:02:10.561Z,49.53
2022-12-15T05:04:56.976Z,53.37
2022-12-15T05:07:44.376Z,52.33
2022-12-15T05:10:32.517Z,51.83
2022-12-15T05:13:23.776Z,49.27
2022-12-15T05:16:09.865Z,53.23
2022-12-15T05:18:56.398Z,51.50
2022-12-15T05:21:42.657Z,55.33
2022-12-15T05:24:28.709Z,53.97
2022-12-15T05:27:15.869Z,56.10
2022-12-15T05:30:02.478Z,55.10
2022-12-15T05:32:33.942Z,52.83
2022-12-15T05:35:02.562Z,47.27
2022-12-15T05:37:30.891Z,52.03
2022-12-15T05:39:59.206Z,57.07
2022-12-15T05:42:28.933Z,59.60
2022-12-15T05:44:57.556Z,56.27
2022-12-15T05:47:26.386Z,57.53
2022-12-15T05:49:54.973Z,52.53
2022-12-15T05:52:23.642Z,55.77
2022-12-15T05:54:51.901Z,56.97
2022-12-15T05:57:24.350Z,54.23
2022-12-15T05:59:54.325Z,49.40
2022-12-15T06:02:23.006Z,57.00
2022-12-15T06:04:51.753Z,54.43
2022-12-15T06:07:22.423Z,53.83
2022-12-15T06:09:51.406Z,55.10
2022-12-15T06:12:20.039Z,56.27
2022-12-15T06:14:49.974Z,55.27
2022-12-15T06:17:19.737Z,59.27
2022-12-15T06:19:48.103Z,56.57
2022-12-15T06:22:16.577Z,55.03
2022-12-15T06:24:45.180Z,58.10
2022-12-15T06:27:13.794Z,56.20
2022-12-15T06:29:42.184Z,58.27
2022-12-15T06:32:10.828Z,61.33
2022-12-15T06:34:41.398Z,55.07
2022-12-15T06:37:09.985Z,56.73
2022-12-15T06:39:38.679Z,62.37
2022-12-15T06:42:07.398Z,55.37
2022-12-15T06:44:36.793Z,57.67
2022-12-15T06:47:05.616Z,63.97
2022-12-15T06:49:34.374Z,60.73
2022-12-15T06:52:04.068Z,62.67
2022-12-15T06:54:32.713Z,65.20
2022-12-15T06:57:01.050Z,59.97
2022-12-15T06:59:29.696Z,57.60
2022-12-15T07:01:58.671Z,56.93
2022-12-15T07:04:27.719Z,61.23
2022-12-15T07:06:57.872Z,63.10
2022-12-15T07:09:28.399Z,60.83
2022-12-15T07:11:56.677Z,67.90
2022-12-15T07:14:25.932Z,60.67
2022-12-15T07:16:54.619Z,59.10
2022-12-15T07:19:23.182Z,59.77
2022-12-15T07:21:52.894Z,56.13
2022-12-15T07:24:21.233Z,61.77
2022-12-15T07:26:51.173Z,62.07
2022-12-15T07:29:23.511Z,57.70
2022-12-15T07:31:53.373Z,64.13
2022-12-15T07:34:22.664Z,56.00
2022-12-15T07:36:52.607Z,55.90
2022-12-15T07:39:21.544Z,58.60
2022-12-15T07:41:51.249Z,52.20
2022-12-15T07:44:19.866Z,60.93
2022-12-15T07:46:49.359Z,56.37
2022-12-15T07:49:18.086Z,58.53
2022-12-15T07:51:46.747Z,55.03
2022-12-15T07:54:16.286Z,55.43
2022-12-15T07:56:45.029Z,54.47
2022-12-15T07:59:20.721Z,54.97
2022-12-15T08:01:49.762Z,55.10
2022-12-15T08:04:18.856Z,57.70
2022-12-15T08:06:47.482Z,58.00
2022-12-15T08:09:16.116Z,58.20
2022-12-15T08:11:44.408Z,58.60
2022-12-15T08:14:17.377Z,57.40
2022-12-15T08:16:48.005Z,54.73
2022-12-15T08:19:17.960Z,60.93
2022-12-15T08:21:47.967Z,56.20
2022-12-15T08:24:17.177Z,59.67
2022-12-15T08:26:49.975Z,52.90
2022-12-15T08:32:09.951Z,54.13
2022-12-15T08:34:39.352Z,51.77
2022-12-15T08:37:07.941Z,52.57
2022-12-15T08:39:36.553Z,53.30
2022-12-15T08:42:05.404Z,55.80
2022-12-15T08:44:33.990Z,44.50
2022-12-15T08:47:02.621Z,51.87
2022-12-15T08:49:32.315Z,49.97
2022-12-15T08:52:00.901Z,47.27
2022-12-15T08:54:29.527Z,46.90
2022-12-15T08:56:57.769Z,52.83
2022-12-15T08:59:26.311Z,48.80
2022-12-15T09:01:55.032Z,50.30
2022-12-15T09:04:24.044Z,53.67
2022-12-15T09:06:53.859Z,51.00
2022-12-15T09:09:22.560Z,47.30
2022-12-15T09:11:51.227Z,50.73
2022-12-15T09:14:27.087Z,48.90
2022-12-15T09:16:57.751Z,45.23
2022-12-15T09:19:26.585Z,51.03
2022-12-15T09:21:56.284Z,51.10
2022-12-15T09:24:34.349Z,47.30
2022-12-15T09:27:04.649Z,51.97
2022-12-15T09:29:34.060Z,47.13
2022-12-15T09:32:06.559Z,48.70
2022-12-15T09:34:38.118Z,47.63
2022-12-15T09:37:07.822Z,43.00
2022-12-15T09:39:37.511Z,47.57
2022-12-15T09:42:06.220Z,46.03
2022-12-15T09:44:35.205Z,48.90
2022-12-15T09:47:13.924Z,49.33
2022-12-15T09:49:56.615Z,47.37
2022-12-15T09:52:31.250Z,49.03
2022-12-15T09:55:01.801Z,46.37
2022-12-15T09:57:45.438Z,52.53
2022-12-15T10:00:22.453Z,51.53
2022-12-15T10:03:22.993Z,48.23
2022-12-15T10:06:20.028Z,51.70
2022-12-15T10:08:57.157Z,48.47
2022-12-15T10:11:55.766Z,45.97
2022-12-15T10:14:34.172Z,44.73
2022-12-15T10:17:21.390Z,49.80
2022-12-15T10:20:03.914Z,42.00
2022-12-15T10:22:37.715Z,47.63
2022-12-15T10:25:25.341Z,42.50
2022-12-15T10:28:25.507Z,45.30
2022-12-15T10:31:01.263Z,45.97
2022-12-15T10:33:36.393Z,48.07
2022-12-15T10:36:12.452Z,44.30
2022-12-15T10:38:46.214Z,47.50
2022-12-15T10:41:23.593Z,46.43
2022-12-15T10:46:47.003Z,51.03
2022-12-15T10:49:26.559Z,49.77
2022-12-15T10:52:00.184Z,46.43
2022-12-15T10:54:35.792Z,48.83
2022-12-15T10:57:21.023Z,50.97
2022-12-15T10:59:50.375Z,46.07
2022-12-15T11:02:34.766Z,51.50
2022-12-15T11:05:06.652Z,48.60
2022-12-15T11:07:39.771Z,49.30
2022-12-15T11:10:21.201Z,47.37
2022-12-15T11:13:10.568Z,49.33
2022-12-15T11:15:43.265Z,47.57
2022-12-15T11:18:24.422Z,47.97
2022-12-15T11:21:01.727Z,50.17
2022-12-15T11:23:50.278Z,41.23
2022-12-15T11:26:33.142Z,46.20
2022-12-15T11:29:11.196Z,38.63
2022-12-15T11:31:44.443Z,49.00
2022-12-15T11:34:16.029Z,42.40
2022-12-15T11:37:02.566Z,43.93
2022-12-15T11:39:54.768Z,45.93
2022-12-15T11:42:35.994Z,39.80
2022-12-15T11:45:19.812Z,42.43
2022-12-15T11:47:53.434Z,45.40
2022-12-15T11:50:31.832Z,45.20
2022-12-15T11:53:19.735Z,41.47
2022-12-15T11:55:58.849Z,44.20
2022-12-15T11:58:51.809Z,46.20
2022-12-15T12:01:57.052Z,47.47
2022-12-15T12:04:35.512Z,45.03
2022-12-15T12:07:16.830Z,50.50
2022-12-15T12:10:04.223Z,45.13
2022-12-15T12:12:44.912Z,43.20
2022-12-15T12:15:31.141Z,46.43
2022-12-15T12:18:12.761Z,46.90
2022-12-15T12:20:50.333Z,43.60
2022-12-15T12:23:28.742Z,48.47
2022-12-15T12:26:07.408Z,45.33
2022-12-15T12:28:46.670Z,43.83
2022-12-15T12:31:32.389Z,43.67
2022-12-15T12:34:13.474Z,45.53
2022-12-15T12:36:44.965Z,43.57
2022-12-15T12:39:24.408Z,47.43
2022-12-15T12:42:06.612Z,45.03
2022-12-15T12:44:38.620Z,43.03
2022-12-15T12:47:17.313Z,43.67
2022-12-15T12:49:51.414Z,45.20
2022-12-15T12:52:28.499Z,47.77
2022-12-15T12:55:03.201Z,54.83
2022-12-15T12:57:41.444Z,50.40
2022-12-15T13:00:20.654Z,47.50
2022-12-15T13:03:14.148Z,45.60
2022-12-15T13:05:46.679Z,46.00
2022-12-15T13:12:14.861Z,43.40
2022-12-15T13:14:51.948Z,45.87
2022-12-15T13:17:33.813Z,50.87
2022-12-15T13:20:30.973Z,46.93
2022-12-15T13:23:41.366Z,47.57
2022-12-15T13:26:20.543Z,44.00
2022-12-15T13:28:58.818Z,45.77
2022-12-15T13:31:41.837Z,44.47
2022-12-15T13:34:39.470Z,41.57
2022-12-15T13:37:46.718Z,36.10
2022-12-15T13:40:51.848Z,38.47
2022-12-15T13:43:43.670Z,37.80
2022-12-15T13:46:17.909Z,39.03
2022-12-15T13:48:49.320Z,35.27
2022-12-15T13:51:39.094Z,39.90
2022-12-15T13:54:18.007Z,40.53
2022-12-15T13:56:56.217Z,35.10
2022-12-15T13:59:38.323Z,40.90
2022-12-15T14:02:26.511Z,49.37
2022-12-15T14:05:14.357Z,50.03
2022-12-15T14:07:54.135Z,47.63
2022-12-15T14:10:28.551Z,48.20
2022-12-15T14:13:15.095Z,40.80
2022-12-15T14:15:47.343Z,38.63
2022-12-15T14:18:30.350Z,44.90
2022-12-15T14:20:59.245Z,36.40
2022-12-15T14:23:30.449Z,39.63
2022-12-15T14:26:07.353Z,38.93
2022-12-15T14:28:39.373Z,39.10
2022-12-15T14:31:15.511Z,41.53
2022-12-15T14:33:50.689Z,41.90
2022-12-15T14:36:21.967Z,42.80
2022-12-15T14:38:55.085Z,41.57
2022-12-15T14:41:28.557Z,39.67
2022-12-15T14:44:31.416Z,38.47
2022-12-15T14:46:52.799Z,42.03
2022-12-15T14:49:29.585Z,39.47
2022-12-15T14:52:05.082Z,41.97
2022-12-15T14:54:37.506Z,46.53
2022-12-15T14:57:16.734Z,42.60
2022-12-15T14:59:51.252Z,43.87
2022-12-15T15:02:24.894Z,45.63
2022-12-15T15:03:11.640Z,53.73
2022-12-15T15:03:12.903Z,47.00
2022-12-15T15:05:03.244Z,44.77
2022-12-15T15:07:33.463Z,40.63
2022-12-15T15:10:04.265Z,45.30
2022-12-15T15:12:45.508Z,44.67
2022-12-15T15:15:19.792Z,43.53
2022-12-15T15:17:53.692Z,45.80
2022-12-15T15:20:28.557Z,43.13
2022-12-15T15:23:19.463Z,44.37
2022-12-15T15:25:53.956Z,43.97
2022-12-15T15:28:26.587Z,47.57
2022-12-15T15:31:00.553Z,44.60
2022-12-15T15:33:30.387Z,43.67
2022-12-15T15:36:01.048Z,45.23
2022-12-15T15:38:33.600Z,43.03
2022-12-15T15:41:16.817Z,43.53
2022-12-15T15:43:45.674Z,39.73
2022-12-15T15:46:20.309Z,43.60
2022-12-15T15:48:53.958Z,45.43
2022-12-15T15:51:24.797Z,41.30
2022-12-15T15:53:54.689Z,44.00
2022-12-15T15:56:23.621Z,40.57
2022-12-15T15:58:51.965Z,45.70
2022-12-15T16:01:21.880Z,45.33
2022-12-15T16:03:50.651Z,42.47
2022-12-15T16:06:24.187Z,48.77
2022-12-15T16:08:54.818Z,43.37
2022-12-15T16:11:25.508Z,46.07
2022-12-15T16:13:53.840Z,43.30
2022-12-15T16:16:31.346Z,47.47
2022-12-15T16:19:00.029Z,44.07
2022-12-15T16:21:29.084Z,45.50
2022-12-15T16:23:59.789Z,43.37
2022-12-15T16:26:33.313Z,42.83
2022-12-15T16:29:01.864Z,47.70
2022-12-15T16:31:41.358Z,40.03
2022-12-15T16:34:10.710Z,43.30
2022-12-15T16:36:39.390Z,43.00
2022-12-15T16:39:25.383Z,39.87
2022-12-15T16:41:56.273Z,38.50
2022-12-15T16:44:26.542Z,46.03
2022-12-15T16:46:56.992Z,42.67
2022-12-15T16:49:25.685Z,41.87
2022-12-15T16:51:54.959Z,37.67
2022-12-15T16:54:28.532Z,41.47
2022-12-15T16:57:00.478Z,41.33
2022-12-15T16:59:33.944Z,38.43
2022-12-15T17:02:23.943Z,41.70
2022-12-15T17:04:55.063Z,38.23
2022-12-15T17:07:25.163Z,40.50
2022-12-15T17:09:53.941Z,38.87
2022-12-15T17:12:22.367Z,43.93
2022-12-15T17:14:50.786Z,41.07
2022-12-15T17:17:21.252Z,37.00
2022-12-15T17:20:27.523Z,42.73
2022-12-15T17:22:39.266Z,42.73
2022-12-15T17:25:17.336Z,43.07
2022-12-15T17:27:47.036Z,38.50
2022-12-15T17:30:17.326Z,40.43
2022-12-15T17:32:48.308Z,41.83
2022-12-15T17:35:17.585Z,43.50
2022-12-15T17:37:46.820Z,44.83
2022-12-15T17:40:21.976Z,39.07
2022-12-15T17:42:51.439Z,47.67
2022-12-15T17:45:24.373Z,39.80
2022-12-15T17:47:54.683Z,41.57
2022-12-15T17:50:23.330Z,40.43
2022-12-15T17:52:51.755Z,38.43
2022-12-15T17:55:29.049Z,38.87
2022-12-15T17:58:00.778Z,37.70
2022-12-15T18:00:32.060Z,39.80
2022-12-15T18:03:02.345Z,38.40
2022-12-15T18:05:32.330Z,39.57
2022-12-15T18:08:15.564Z,39.40
2022-12-15T18:10:45.723Z,38.00
2022-12-15T18:13:20.425Z,38.10
2022-12-15T18:15:49.549Z,40.03
2022-12-15T18:18:22.222Z,43.50
2022-12-15T18:20:52.061Z,39.67
2022-12-15T18:23:26.323Z,39.73
2022-12-15T18:25:59.672Z,42.50
2022-12-15T18:28:33.258Z,43.70
2022-12-15T18:31:21.351Z,39.17
2022-12-15T18:33:51.171Z,39.17
2022-12-15T18:36:20.712Z,38.30
2022-12-15T18:38:49.750Z,40.93
2022-12-15T18:41:21.117Z,39.17
2022-12-15T18:43:58.606Z,43.23
2022-12-15T18:46:28.236Z,42.10
2022-12-15T18:49:00.288Z,42.33
2022-12-15T18:51:30.768Z,40.93
2022-12-15T18:53:59.141Z,40.27
2022-12-15T18:56:27.733Z,38.23
2022-12-15T18:58:56.263Z,44.70
2022-12-15T19:01:25.018Z,43.93
2022-12-15T19:03:53.972Z,43.40
2022-12-15T19:06:34.809Z,40.83
2022-12-15T19:09:03.937Z,38.77
2022-12-15T19:11:33.089Z,37.67
2022-12-15T19:14:04.102Z,43.10
2022-12-15T19:16:52.937Z,41.63
2022-12-15T19:19:39.287Z,36.53
2022-12-15T19:22:28.029Z,42.80
2022-12-15T19:24:57.088Z,40.13
2022-12-15T19:27:27.466Z,41.20
2022-12-15T19:29:56.579Z,40.77
2022-12-15T19:32:26.768Z,41.90
2022-12-15T19:34:55.553Z,42.67
2022-12-15T19:37:28.539Z,44.60
2022-12-15T19:39:58.956Z,43.17
2022-12-15T19:42:33.392Z,44.80
2022-12-15T19:45:02.647Z,42.97
2022-12-15T19:47:31.306Z,42.20
2022-12-15T19:49:59.730Z,42.20
2022-12-15T19:52:29.827Z,43.63
2022-12-15T19:54:58.679Z,41.83
2022-12-15T19:57:27.558Z,42.83
2022-12-15T19:59:56.052Z,47.43
2022-12-15T20:02:24.567Z,43.20
2022-12-15T20:04:53.050Z,43.17
2022-12-15T20:07:30.415Z,42.07
2022-12-15T20:09:59.022Z,42.60
2022-12-15T20:12:27.589Z,42.47
2022-12-15T20:14:56.632Z,46.33
2022-12-15T20:17:25.119Z,43.17
2022-12-15T20:19:53.524Z,43.30
2022-12-15T20:22:21.971Z,40.13
2022-12-15T20:24:51.796Z,41.63
2022-12-15T20:27:21.200Z,43.57
2022-12-15T20:29:49.632Z,44.87
2022-12-15T20:32:21.815Z,44.43
2022-12-15T20:34:50.517Z,42.97
2022-12-15T20:37:24.263Z,45.60
2022-12-15T20:39:57.712Z,41.20
2022-12-15T20:42:26.940Z,47.27
2022-12-15T20:44:55.710Z,44.93
2022-12-15T20:47:27.696Z,44.30
2022-12-15T20:49:56.762Z,41.20
2022-12-15T20:52:28.029Z,44.47
2022-12-15T20:54:58.032Z,46.93
2022-12-15T20:57:26.800Z,47.70
2022-12-15T20:59:55.742Z,42.20
2022-12-15T21:02:25.802Z,42.67
2022-12-15T21:04:55.208Z,41.57
2022-12-15T21:07:23.663Z,45.70
2022-12-15T21:09:52.066Z,45.30
2022-12-15T21:12:26.439Z,45.40
2022-12-15T21:14:55.552Z,45.53
2022-12-15T21:17:27.011Z,44.17
2022-12-15T21:19:55.621Z,44.20
2022-12-15T21:22:27.629Z,44.93
2022-12-15T21:25:00.417Z,41.60
2022-12-15T21:27:30.179Z,42.27
2022-12-15T21:29:58.535Z,46.03
2022-12-15T21:32:26.885Z,44.03
2022-12-15T21:34:55.572Z,44.27
2022-12-15T21:37:29.705Z,42.37
2022-12-15T21:40:00.487Z,43.13
2022-12-15T21:42:37.501Z,42.17
2022-12-15T21:45:13.677Z,46.07
2022-12-15T21:47:59.344Z,41.73
2022-12-15T21:50:28.160Z,40.90
2022-12-15T21:52:57.244Z,44.90
2022-12-15T21:55:28.914Z,43.80
2022-12-15T21:57:59.289Z,41.93
2022-12-15T22:00:28.143Z,44.17
2022-12-15T22:02:57.016Z,46.00
2022-12-15T22:05:30.271Z,43.73
2022-12-15T22:08:02.690Z,41.97
2022-12-15T22:10:31.212Z,41.97
2022-12-15T22:13:01.075Z,40.20
2022-12-15T22:15:30.758Z,40.93
2022-12-15T22:17:59.600Z,43.03
2022-12-15T22:20:28.004Z,43.17
2022-12-15T22:22:56.574Z,40.43
2022-12-15T22:25:26.889Z,44.27
2022-12-15T22:27:55.588Z,41.87
2022-12-15T22:30:27.978Z,37.87
2022-12-15T22:32:56.588Z,37.47
2022-12-15T22:35:27.659Z,40.90
2022-12-15T22:37:56.461Z,39.97
2022-12-15T22:40:26.238Z,38.63
2022-12-15T22:42:58.858Z,39.50
2022-12-15T22:45:29.137Z,40.87
2022-12-15T22:47:57.869Z,38.57
2022-12-15T22:50:27.955Z,39.27
2022-12-15T22:52:56.315Z,37.23
2022-12-15T22:55:25.426Z,38.03
2022-12-15T22:58:00.784Z,36.13
2022-12-15T23:00:30.785Z,38.90
2022-12-15T23:02:59.825Z,37.47
2022-12-15T23:05:28.367Z,36.13
2022-12-15T23:07:57.067Z,35.70
2022-12-15T23:10:43.143Z,37.27
2022-12-15T23:13:11.504Z,38.00
2022-12-15T23:15:58.696Z,36.53
2022-12-15T23:18:27.385Z,36.67
2022-12-15T23:20:56.507Z,38.03
2022-12-15T23:23:25.938Z,38.83
2022-12-15T23:25:54.878Z,39.63
2022-12-15T23:28:23.437Z,36.80
2022-12-15T23:30:54.502Z,39.33
2022-12-15T23:33:24.889Z,43.40
2022-12-15T23:35:54.991Z,39.50
2022-12-15T23:38:23.822Z,40.23
2022-12-15T23:40:54.738Z,44.53
2022-12-15T23:43:24.981Z,43.00
2022-12-15T23:46:00.289Z,43.57
2022-12-15T23:48:32.583Z,41.00
2022-12-15T23:51:06.883Z,40.83
2022-12-15T23:53:35.611Z,43.37
2022-12-15T23:56:11.312Z,46.00
2022-12-15T23:58:41.367Z,42.90
